createdAt,value
2023-05-24T00:00:01.413Z,28.2
2023-05-24T00:05:01.726Z,28.4
2023-05-24T00:10:01.990Z,28.6
2023-05-24T00:15:01.156Z,28.7
2023-05-24T00:20:01.670Z,28.9
2023-05-24T00:25:01.853Z,29.1
2023-05-24T00:30:02.015Z,29.2
2023-05-24T00:35:01.146Z,29.2
2023-05-24T00:40:01.300Z,29.1
2023-05-24T00:45:01.424Z,29.1
2023-05-24T00:50:01.570Z,28.9
2023-05-24T00:55:01.708Z,29.1
2023-05-24T01:00:01.869Z,29.2
2023-05-24T01:05:02.026Z,29.3
2023-05-24T01:10:01.157Z,29.3
2023-05-24T01:15:01.299Z,29.3
2023-05-24T01:20:01.482Z,29.5
2023-05-24T01:25:01.678Z,29.7
2023-05-24T01:30:01.865Z,29.8
2023-05-24T01:35:02.031Z,29.9
2023-05-24T01:40:01.181Z,30
2023-05-24T01:45:01.306Z,30.1
2023-05-24T01:50:01.446Z,30.1
2023-05-24T01:55:01.571Z,30.1
2023-05-24T02:00:01.710Z,30.3
2023-05-24T02:05:01.853Z,30.4
2023-05-24T02:10:02.028Z,30.4
2023-05-24T02:15:01.161Z,30.6
2023-05-24T02:20:01.384Z,30.7
2023-05-24T02:25:01.779Z,30.3
2023-05-24T02:30:01.938Z,30.1
2023-05-24T02:35:01.082Z,30
2023-05-24T02:40:01.212Z,28.7
2023-05-24T02:45:01.349Z,28.2
2023-05-24T02:50:01.486Z,28.4
2023-05-24T02:55:01.616Z,28.2
2023-05-24T03:00:01.837Z,27.9
2023-05-24T03:05:02.040Z,27.6
2023-05-24T03:10:01.188Z,27.7
2023-05-24T03:15:01.323Z,27.6
2023-05-24T03:20:01.554Z,27.6
2023-05-24T03:25:01.746Z,27.4
2023-05-24T03:30:01.917Z,27.5
2023-05-24T03:35:02.075Z,27.5
2023-05-24T03:40:01.221Z,27.4
2023-05-24T03:45:01.353Z,27.6
2023-05-24T03:50:01.551Z,27.6
2023-05-24T03:55:01.671Z,27.6
2023-05-24T04:00:01.848Z,27.5
2023-05-24T08:10:01.269Z,30.2
2023-05-24T08:15:01.396Z,30.3
2023-05-24T08:20:01.559Z,30.3
2023-05-24T08:25:01.725Z,30.3
2023-05-24T08:30:01.895Z,30.3
2023-05-24T08:35:18.093Z,30.3
2023-05-24T08:40:01.262Z,30.3
2023-05-24T08:45:01.409Z,30.3
2023-05-24T08:50:01.610Z,30.3
2023-05-24T08:55:01.781Z,30.3
2023-05-24T09:00:01.973Z,30.3
2023-05-24T09:05:01.137Z,30.3
2023-05-24T09:10:01.294Z,30.3
2023-05-24T09:15:01.429Z,30.3
2023-05-24T09:20:01.665Z,30.3
2023-05-24T09:25:01.864Z,30.2
2023-05-24T09:30:01.173Z,30.3
2023-05-24T09:35:01.318Z,30.2
2023-05-24T09:40:01.456Z,30.2
2023-05-24T09:45:01.611Z,30.1
2023-05-24T09:50:01.805Z,30.2
2023-05-24T09:55:01.959Z,30.2
2023-05-24T10:00:01.092Z,30.1
2023-05-24T10:05:01.370Z,30.1
2023-05-24T10:10:01.675Z,30.1
2023-05-24T10:15:01.864Z,30.1
2023-05-24T10:20:02.082Z,30.1
2023-05-24T10:25:01.305Z,30.1
2023-05-24T10:30:01.459Z,30.1
2023-05-24T10:35:01.602Z,30.1
2023-05-24T10:40:01.740Z,30.1
2023-05-24T10:45:01.942Z,30.1
2023-05-24T10:50:01.100Z,30.1
2023-05-24T10:55:04.167Z,30.1
2023-05-24T11:00:01.878Z,30.1
2023-05-24T11:05:02.113Z,30.1
2023-05-24T11:10:01.300Z,30.1
2023-05-24T11:15:01.471Z,30.1
2023-05-24T11:20:01.659Z,30.1
2023-05-24T11:25:01.834Z,30.1
2023-05-24T11:30:01.999Z,30
2023-05-24T11:35:01.129Z,30
2023-05-24T11:40:01.272Z,30
2023-05-24T11:45:01.414Z,30
2023-05-24T11:50:01.567Z,30
2023-05-24T11:55:01.697Z,30
2023-05-24T12:00:01.861Z,30
2023-05-24T12:05:02.081Z,29.9
2023-05-24T12:10:01.242Z,29.9
2023-05-24T12:15:01.375Z,29.9
2023-05-24T12:20:01.529Z,29.9
2023-05-24T12:25:01.665Z,29.9
2023-05-24T12:30:01.817Z,29.9
2023-05-24T12:35:01.981Z,29.9
2023-05-24T12:40:01.142Z,29.9
2023-05-24T12:45:01.283Z,29.9
2023-05-24T12:50:01.440Z,29.9
2023-05-24T12:55:01.594Z,29.9
2023-05-24T13:00:01.775Z,29.9
2023-05-24T13:05:01.967Z,29.9
2023-05-24T13:10:01.174Z,29.9
2023-05-24T13:15:01.361Z,29.9
2023-05-24T13:20:01.582Z,29.9
2023-05-24T13:25:01.754Z,29.9
2023-05-24T13:30:02.073Z,29.9
2023-05-24T13:35:01.299Z,29.9
2023-05-24T13:40:01.465Z,29.9
2023-05-24T13:45:01.601Z,29.8
2023-05-24T13:50:01.748Z,30
2023-05-24T13:55:01.913Z,29.4
2023-05-24T14:00:02.140Z,29.9
2023-05-24T14:05:13.798Z,29.9
2023-05-24T14:10:01.706Z,30
2023-05-24T14:15:01.848Z,30
2023-05-24T14:20:02.080Z,29.9
2023-05-24T14:25:01.280Z,29.9
2023-05-24T14:30:01.479Z,30.1
2023-05-24T14:35:01.654Z,30
2023-05-24T14:40:01.928Z,30.1
2023-05-24T14:45:01.137Z,30
2023-05-24T14:50:01.279Z,30
2023-05-24T14:55:01.433Z,30
2023-05-24T15:00:01.633Z,30
2023-05-24T15:05:01.780Z,30
2023-05-24T15:10:01.961Z,30.1
2023-05-24T15:15:01.128Z,30.1
2023-05-24T15:20:01.346Z,30.1
2023-05-24T15:25:01.514Z,30.1
2023-05-24T15:30:01.667Z,30.1
2023-05-24T15:35:01.814Z,30.1
2023-05-24T15:40:01.955Z,30.1
2023-05-24T15:45:01.112Z,30
2023-05-24T15:50:01.240Z,30
2023-05-24T15:55:01.360Z,30
2023-05-24T16:00:01.498Z,30
2023-05-24T16:05:01.667Z,30
2023-05-24T16:10:01.842Z,30.1
2023-05-24T16:15:01.981Z,30.1
2023-05-24T16:20:01.143Z,30.1
2023-05-24T16:25:01.274Z,30.1
2023-05-24T16:30:01.395Z,30
2023-05-24T16:35:01.531Z,30.1
2023-05-24T16:40:01.669Z,30.1
2023-05-24T16:45:01.812Z,30
2023-05-24T16:50:01.956Z,29.3
2023-05-24T16:55:01.090Z,29.1
2023-05-24T17:00:01.229Z,29.6
2023-05-24T17:05:01.359Z,29.2
2023-05-24T17:10:01.488Z,28.9
2023-05-24T17:15:01.606Z,28.9
2023-05-24T17:20:01.849Z,28.9
2023-05-24T17:25:02.074Z,29
2023-05-24T17:30:01.238Z,28.9
2023-05-24T17:35:01.378Z,28.9
2023-05-24T17:40:01.514Z,28.8
2023-05-24T17:45:01.648Z,28.9
2023-05-24T17:50:01.772Z,28.9
2023-05-24T17:55:01.898Z,28.8
2023-05-24T18:00:02.072Z,28.8
2023-05-24T18:05:01.245Z,29.1
2023-05-24T18:10:01.449Z,29.4
2023-05-24T18:15:01.606Z,29.7
2023-05-24T18:20:01.790Z,29.7
2023-05-24T18:25:02.015Z,29.8
2023-05-24T18:30:01.178Z,29.9
2023-05-24T18:35:01.323Z,29.9
2023-05-24T18:40:01.484Z,29.8
2023-05-24T18:45:01.621Z,29.8
2023-05-24T18:50:01.778Z,29.7
2023-05-24T18:55:01.966Z,29.8
2023-05-24T19:00:01.121Z,29.8
2023-05-24T19:05:01.252Z,29.7
2023-05-24T19:10:01.393Z,29.7
2023-05-24T19:15:01.523Z,29.8
2023-05-24T19:20:01.650Z,29.8
2023-05-24T19:25:01.835Z,29.8
2023-05-24T19:30:01.987Z,29.8
2023-05-24T19:35:01.113Z,29.8
2023-05-24T19:40:01.273Z,29.8
2023-05-24T19:45:01.432Z,29.8
2023-05-24T19:50:01.598Z,29.8
2023-05-24T19:55:01.727Z,29.8
2023-05-24T20:00:01.908Z,29.8
2023-05-24T20:05:02.063Z,29.9
2023-05-24T20:10:01.215Z,29.8
2023-05-24T20:15:01.351Z,29.8
2023-05-24T20:20:01.496Z,29.8
2023-05-24T20:25:01.672Z,29.8
2023-05-24T20:30:01.834Z,29.8
2023-05-24T20:35:01.977Z,29.8
2023-05-24T20:40:01.117Z,29.8
2023-05-24T20:45:01.262Z,29.9
2023-05-24T20:50:01.382Z,29.9
2023-05-24T20:55:01.519Z,30
2023-05-24T21:00:01.669Z,30
2023-05-24T21:05:01.810Z,30
2023-05-24T21:10:01.957Z,29.9
2023-05-24T21:15:01.089Z,29.9
2023-05-24T21:20:01.241Z,30.1
2023-05-24T21:25:01.436Z,30
2023-05-24T21:30:01.590Z,30
2023-05-24T21:35:01.731Z,30
2023-05-24T21:40:01.897Z,29.9
2023-05-24T21:45:02.053Z,30
2023-05-24T21:50:01.191Z,29.8
2023-05-24T22:25:01.507Z,23.6
2023-05-24T22:30:01.675Z,23.7
2023-05-24T22:35:01.817Z,24
2023-05-24T22:40:01.969Z,24.4
2023-05-24T22:45:01.123Z,24.4
2023-05-24T22:50:01.295Z,24.5
2023-05-24T22:55:01.543Z,24.6
2023-05-24T23:00:01.690Z,24.6
2023-05-24T23:05:01.869Z,24.6
2023-05-24T23:10:02.057Z,24.7
2023-05-24T23:15:01.191Z,24.7
2023-05-24T23:20:01.376Z,24.7
2023-05-24T23:25:01.535Z,24.8
2023-05-24T23:30:01.685Z,24.9
2023-05-24T23:35:01.848Z,24.8
2023-05-24T23:40:01.998Z,24.9
2023-05-24T23:45:01.141Z,24.9
2023-05-24T23:50:01.268Z,24.9
2023-05-24T23:55:01.391Z,25
